KAAT

Alturas Municipal Airport

Alturas, California, USA
METAR KAAT 241155Z AUTO 00000KT 10SM CLR M02/M09 A3011 RMK AO2 SLP184 T10221089 10061 21033 53002
Observed Flight Rules
Sep-24 @ 11:55 UTC (19 minutes ago) Visual Flight Rules
Visibility Clouds
10 miles
  • Clear skies
Temperatures Readings
Current -2°C / 28°F
Dewpoint -9°C / 16°F
Humidity 59%
Altimeter 30.11" Hg
Pressure 1018.4 hPa
Elevation 1331
METAR KAAT 241155Z AUTO 00000KT 10SM CLR M02/M09 A3011 RMK AO2 SLP184 T10221089 10061 21033 53002
Observed Flight Rules
Sep-24 @ 11:55 UTC
(19 minutes ago)
VFR
Clouds
  • Clear skies
Temperature Dewpoint
-2°C / 28°F -9°C / 16°F
Humidity Altimeter Pressure
59% 30.11" Hg 1018.4 hPa